86-й км

Карта отелей и гостиниц, располагающихся рядом с аэропортом 86-й км :

86-й км Ханты-Мансийский автономный округ - Югра 62° 12' 12.8412" N, 63° 29' 46.7988" E
86-й км Ханты-Мансийский автономный округ - Югра 62° 12' 12.8412" N, 63° 29' 46.7988" E
Код аэродрома ИКАО
HC10
Код аэродрома RU
ХЦ10
Координаты
N62.20357° E063.49633°
Превышение над уровнем моря
102
Основная полоса
02/20
Курс магнитный
015,2/195,2
Длина основной ВПП
25
Ширина основной ВПП
20
Покрытие основной ВПП
Твёрдое
Освещение ВПП
Постоянное
Тип: 
Вертодром
Класс аэродрома: 
Принадлежность: 
ГА
Статус: 
Действующий
Сайт: 
E-mail аэродрома: 
Страна: 
Россия
Регион: 
Ханты-Мансийский автономный округ - Югра
Город: 
Дополнительная информация: 

Найти трансфер

С помощью этой формы Вы можете найти трансфер из аэропорта 86-й км в город, аэропорт или вокзал:

Карта места

Javascript is required to view this map.

Погода в аэропортах:

Авиационная погода в Якутске

Регион: 
Погода METAR: 
UEEE 171830Z 30004MPS 9999 -SHRA SCT009 BKN018CB 07/07 Q0997 R23L/290155 NOSIG RMK QFE739
Время наблюдения
2021-09-17T18:30:00Z
Температура C
7.0
Точка росы
7.0
Направление ветра
300
Скорость ветра (узлы)
8
Метео видимость
6.21
Явления погоды
-SHRA
Условия полета
MVFR
Аэропорт подробнее: 

Авиационная погода в аэропорту Международный

Регион: 
Погода METAR: 
UKLL 171630Z 01004MPS 3600 -SHRA BKN004 BKN030CB 17/16 Q1005 R31/290055 NOSIG
Время наблюдения
2021-09-17T16:30:00Z
Температура C
17.0
Точка росы
16.0
Направление ветра
10
Скорость ветра (узлы)
8
Метео видимость
2.24
Явления погоды
-SHRA
Условия полета
LIFR
Аэропорт подробнее: 

Авиационная погода в Махачкале

Регион: 
Погода METAR: 
URML 171830Z 06002MPS 9999 -RA OVC024 18/15 Q1016 R14/290060 NOSIG RMK QFE762/1016
Время наблюдения
2021-09-17T18:30:00Z
Температура C
18.0
Точка росы
15.0
Направление ветра
60
Скорость ветра (узлы)
4
Метео видимость
6.21
Явления погоды
-RA
Условия полета
MVFR
Аэропорт подробнее: 

Авиационная погода в Екатеринбурге

Регион: 
Погода METAR: 
USSS 171830Z 10002MPS 9000 -SHRA SCT008 OVC022CB 05/05 Q1007 R26L/290050 R26R/290032 TEMPO 3100 -SHRA BKN005 SCT016CB RMK QFE734/0979
Время наблюдения
2021-09-17T18:30:00Z
Температура C
5.0
Точка росы
5.0
Направление ветра
100
Скорость ветра (узлы)
4
Метео видимость
5.59
Явления погоды
-SHRA
Условия полета
MVFR
Аэропорт подробнее: